createdAt,value
2022-08-09T00:00:00.078Z,20.20
2022-08-09T00:02:28.308Z,20.20
2022-08-09T00:05:03.164Z,20.20
2022-08-09T00:07:44.864Z,20.20
2022-08-09T00:10:11.891Z,20.10
2022-08-09T00:12:51.746Z,20.10
2022-08-09T00:15:26.819Z,20.10
2022-08-09T00:18:07.608Z,20.10
2022-08-09T00:20:42.403Z,20.10
2022-08-09T00:23:55.723Z,20.00
2022-08-09T00:26:05.104Z,20.00
2022-08-09T00:28:32.211Z,20.00
2022-08-09T00:31:02.413Z,20.00
2022-08-09T00:33:51.478Z,20.00
2022-08-09T00:36:22.552Z,20.00
2022-08-09T00:38:56.408Z,19.90
2022-08-09T00:44:15.387Z,19.90
2022-08-09T00:44:20.468Z,19.90
2022-08-09T00:46:56.088Z,19.90
2022-08-09T00:49:24.746Z,19.80
2022-08-09T00:51:56.423Z,19.80
2022-08-09T00:54:31.661Z,19.80
2022-08-09T00:57:08.981Z,19.70
2022-08-09T00:59:46.019Z,19.70
2022-08-09T01:02:29.438Z,19.70
2022-08-09T01:05:05.384Z,19.60
2022-08-09T01:08:13.712Z,19.60
2022-08-09T01:10:51.222Z,19.60
2022-08-09T01:13:18.620Z,19.50
2022-08-09T01:15:52.927Z,19.50
2022-08-09T01:18:30.191Z,19.50
2022-08-09T01:21:16.767Z,19.50
2022-08-09T01:24:04.993Z,19.50
2022-08-09T01:26:31.856Z,19.40
2022-08-09T01:28:59.219Z,19.50
2022-08-09T01:32:29.572Z,19.40
2022-08-09T01:34:16.922Z,19.40
2022-08-09T01:36:44.996Z,19.40
2022-08-09T01:39:14.306Z,19.30
2022-08-09T01:41:53.701Z,19.30
2022-08-09T01:44:29.020Z,19.30
2022-08-09T01:46:57.388Z,19.30
2022-08-09T01:49:28.004Z,19.20
2022-08-09T01:52:07.849Z,19.20
2022-08-09T01:54:54.854Z,19.20
2022-08-09T01:57:24.884Z,19.20
2022-08-09T01:59:53.292Z,19.10
2022-08-09T02:02:30.894Z,19.10
2022-08-09T02:05:04.666Z,19.10
2022-08-09T02:08:35.805Z,19.10
2022-08-09T02:10:30.178Z,19.10
2022-08-09T02:12:57.474Z,19.00
2022-08-09T02:15:27.048Z,19.00
2022-08-09T02:18:15.160Z,18.90
2022-08-09T02:20:45.380Z,18.90
2022-08-09T02:23:16.954Z,18.90
2022-08-09T02:25:52.743Z,18.90
2022-08-09T02:28:30.087Z,18.80
2022-08-09T02:31:20.221Z,18.80
2022-08-09T02:34:07.022Z,18.80
2022-08-09T02:36:37.643Z,18.80
2022-08-09T02:39:14.471Z,18.80
2022-08-09T02:41:53.749Z,18.80
2022-08-09T02:44:30.709Z,18.70
2022-08-09T02:47:01.499Z,18.70
2022-08-09T02:49:41.205Z,18.60
2022-08-09T02:52:11.715Z,18.60
2022-08-09T02:54:51.166Z,18.60
2022-08-09T02:57:23.148Z,18.50
2022-08-09T03:00:20.872Z,18.50
2022-08-09T03:02:39.039Z,18.50
2022-08-09T03:05:26.321Z,18.50
2022-08-09T03:07:55.442Z,18.50
2022-08-09T03:10:22.956Z,18.40
2022-08-09T03:12:52.219Z,18.40
2022-08-09T03:15:20.747Z,18.40
2022-08-09T03:17:57.789Z,18.40
2022-08-09T03:20:29.444Z,18.40
2022-08-09T03:22:58.401Z,18.40
2022-08-09T03:25:57.946Z,18.40
2022-08-09T03:28:27.083Z,18.30
2022-08-09T03:30:54.880Z,18.30
2022-08-09T03:33:22.554Z,18.30
2022-08-09T03:36:12.904Z,18.30
2022-08-09T03:38:42.145Z,18.30
2022-08-09T03:41:10.291Z,18.20
2022-08-09T03:43:42.628Z,18.20
2022-08-09T03:46:27.000Z,18.20
2022-08-09T03:48:56.940Z,18.10
2022-08-09T03:51:55.267Z,18.10
2022-08-09T03:54:13.546Z,18.10
2022-08-09T03:56:41.019Z,18.10
2022-08-09T03:59:13.515Z,18.10
2022-08-09T04:01:44.172Z,18.10
2022-08-09T04:04:14.797Z,18.10
2022-08-09T04:06:44.076Z,18.10
2022-08-09T04:09:47.865Z,18.00
2022-08-09T04:12:05.588Z,18.00
2022-08-09T04:14:53.812Z,18.00
2022-08-09T04:17:18.853Z,18.00
2022-08-09T04:19:50.990Z,18.00
2022-08-09T04:22:18.631Z,18.00
2022-08-09T04:24:48.326Z,18.00
2022-08-09T04:27:14.980Z,18.00
2022-08-09T04:29:48.644Z,18.00
2022-08-09T04:32:16.966Z,18.00
2022-08-09T04:34:54.330Z,18.00
2022-08-09T04:37:24.189Z,18.00
2022-08-09T04:40:11.677Z,18.00
2022-08-09T04:42:48.579Z,18.00
2022-08-09T04:45:16.438Z,18.00
2022-08-09T04:47:58.839Z,18.00
2022-08-09T04:50:34.807Z,18.00
2022-08-09T04:53:02.011Z,18.00
2022-08-09T04:55:37.938Z,18.00
2022-08-09T04:58:15.545Z,18.00
2022-08-09T05:00:43.144Z,18.00
2022-08-09T05:03:30.633Z,18.00
2022-08-09T05:06:06.704Z,18.00
2022-08-09T05:08:37.081Z,18.00
2022-08-09T05:11:06.695Z,18.10
2022-08-09T05:13:33.926Z,18.00
2022-08-09T05:16:05.296Z,18.10
2022-08-09T05:18:55.397Z,18.00
2022-08-09T05:21:23.127Z,18.10
2022-08-09T05:24:00.044Z,18.10
2022-08-09T05:26:36.755Z,18.10
2022-08-09T05:29:04.637Z,18.10
2022-08-09T05:31:37.023Z,18.10
2022-08-09T05:34:16.833Z,18.10
2022-08-09T05:36:46.768Z,18.20
2022-08-09T05:39:21.708Z,18.20
2022-08-09T05:41:55.984Z,18.30
2022-08-09T05:44:29.173Z,18.30
2022-08-09T05:46:59.840Z,18.30
2022-08-09T05:50:24.442Z,18.30
2022-08-09T05:52:13.083Z,18.40
2022-08-09T05:54:40.249Z,18.40
2022-08-09T05:57:07.596Z,18.40
2022-08-09T05:59:39.547Z,18.50
2022-08-09T06:02:09.077Z,18.50
2022-08-09T06:04:36.868Z,18.50
2022-08-09T06:07:11.604Z,18.50
2022-08-09T06:10:01.424Z,18.60
2022-08-09T06:12:29.276Z,18.60
2022-08-09T06:15:00.890Z,18.60
2022-08-09T06:17:39.837Z,18.70
2022-08-09T06:20:07.984Z,18.70
2022-08-09T06:22:35.207Z,18.70
2022-08-09T06:25:02.102Z,18.80
2022-08-09T06:27:42.638Z,18.80
2022-08-09T06:30:16.165Z,18.80
2022-08-09T06:33:40.139Z,18.80
2022-08-09T06:35:35.577Z,18.80
2022-08-09T06:38:17.459Z,18.90
2022-08-09T06:40:46.021Z,18.90
2022-08-09T06:43:13.513Z,18.90
2022-08-09T06:46:07.039Z,18.90
2022-08-09T06:48:30.988Z,18.90
2022-08-09T06:51:00.898Z,19.00
2022-08-09T06:53:33.196Z,19.00
2022-08-09T06:56:09.228Z,19.00
2022-08-09T07:00:47.496Z,19.10
2022-08-09T07:01:24.243Z,19.10
2022-08-09T07:03:57.846Z,19.20
2022-08-09T07:06:30.499Z,19.20
2022-08-09T07:08:57.141Z,19.30
2022-08-09T07:11:25.544Z,19.30
2022-08-09T07:14:05.155Z,19.30
2022-08-09T07:16:42.302Z,19.40
2022-08-09T07:19:18.443Z,19.40
2022-08-09T07:21:50.104Z,19.50
2022-08-09T07:24:32.577Z,19.50
2022-08-09T07:27:21.061Z,19.50
2022-08-09T07:29:58.401Z,19.60
2022-08-09T07:32:32.180Z,19.60
2022-08-09T07:35:02.501Z,19.70
2022-08-09T07:37:29.543Z,19.70
2022-08-09T07:39:56.329Z,19.80
2022-08-09T07:42:32.908Z,19.80
2022-08-09T07:45:06.315Z,19.90
2022-08-09T07:47:39.527Z,19.90
2022-08-09T07:50:20.742Z,19.90
2022-08-09T07:53:03.034Z,19.90
2022-08-09T07:56:02.924Z,20.00
2022-08-09T07:58:18.599Z,20.00
2022-08-09T08:00:59.232Z,20.10
2022-08-09T08:03:36.867Z,20.10
2022-08-09T08:06:04.362Z,20.20
2022-08-09T08:09:00.004Z,20.20
2022-08-09T08:12:09.741Z,20.30
2022-08-09T08:14:06.337Z,20.40
2022-08-09T08:16:33.266Z,20.40
2022-08-09T08:19:02.928Z,20.50
2022-08-09T08:21:31.095Z,20.50
2022-08-09T08:24:01.050Z,20.60
2022-08-09T08:26:54.528Z,20.60
2022-08-09T08:29:27.895Z,20.70
2022-08-09T08:32:02.243Z,20.80
2022-08-09T08:34:30.783Z,20.70
2022-08-09T08:37:01.378Z,20.90
2022-08-09T08:39:28.405Z,20.90
2022-08-09T08:41:55.197Z,20.90
2022-08-09T08:44:29.346Z,21.00
2022-08-09T08:46:59.934Z,21.10
2022-08-09T08:49:33.253Z,21.10
2022-08-09T08:52:09.959Z,21.10
2022-08-09T08:54:37.942Z,21.20
2022-08-09T08:57:05.660Z,21.20
2022-08-09T08:59:46.530Z,21.30
2022-08-09T09:02:30.969Z,21.40
2022-08-09T09:04:59.396Z,21.40
2022-08-09T09:07:36.740Z,21.40
2022-08-09T09:10:09.033Z,21.50
2022-08-09T09:12:36.747Z,21.50
2022-08-09T09:15:05.561Z,21.60
2022-08-09T09:17:48.159Z,21.60
2022-08-09T09:20:16.445Z,21.60
2022-08-09T09:23:03.369Z,21.70
2022-08-09T09:26:04.763Z,21.80
2022-08-09T09:28:39.153Z,21.80
2022-08-09T09:32:03.382Z,21.90
2022-08-09T09:34:14.576Z,21.90
2022-08-09T09:36:51.060Z,21.90
2022-08-09T09:39:25.577Z,22.00
2022-08-09T09:42:21.336Z,22.10
2022-08-09T09:44:54.871Z,22.10
2022-08-09T09:47:22.887Z,22.20
2022-08-09T09:50:13.812Z,22.20
2022-08-09T09:52:57.465Z,22.30
2022-08-09T09:55:31.878Z,22.30
2022-08-09T09:58:16.808Z,22.30
2022-08-09T10:00:55.330Z,22.40
2022-08-09T10:03:38.013Z,22.50
2022-08-09T10:06:06.507Z,22.50
2022-08-09T10:08:43.186Z,22.50
2022-08-09T10:11:59.351Z,22.60
2022-08-09T10:14:27.642Z,22.60
2022-08-09T10:17:11.537Z,22.60
2022-08-09T10:19:45.728Z,22.70
2022-08-09T10:22:12.606Z,22.80
2022-08-09T10:24:39.940Z,22.80
2022-08-09T10:27:10.201Z,22.80
2022-08-09T10:30:43.551Z,22.90
2022-08-09T10:32:42.857Z,22.90
2022-08-09T10:35:10.417Z,22.90
2022-08-09T10:37:40.327Z,23.00
2022-08-09T10:40:12.152Z,23.10
2022-08-09T10:42:55.917Z,23.10
2022-08-09T10:45:23.103Z,23.10
2022-08-09T10:48:25.994Z,23.20
2022-08-09T10:51:12.242Z,23.20
2022-08-09T10:53:54.666Z,23.30
2022-08-09T10:56:40.995Z,23.30
2022-08-09T10:59:55.504Z,23.40
2022-08-09T11:03:13.616Z,23.50
2022-08-09T11:05:30.009Z,23.50
2022-08-09T11:08:17.537Z,23.60
2022-08-09T11:10:54.365Z,23.70
2022-08-09T11:13:50.020Z,23.80
2022-08-09T11:16:35.349Z,23.80
2022-08-09T11:19:09.638Z,24.00
2022-08-09T11:21:57.014Z,24.00
2022-08-09T11:24:51.073Z,24.10
2022-08-09T11:28:03.535Z,24.20
2022-08-09T11:30:32.805Z,24.30
2022-08-09T11:33:05.630Z,24.30
2022-08-09T11:35:35.354Z,24.40
2022-08-09T11:38:22.293Z,24.40
2022-08-09T11:40:55.957Z,24.40
2022-08-09T11:43:26.770Z,24.50
2022-08-09T11:46:00.295Z,24.60
2022-08-09T11:48:29.847Z,24.70
2022-08-09T11:52:59.073Z,24.70
2022-08-09T11:54:01.435Z,24.80
2022-08-09T11:56:41.674Z,24.90
2022-08-09T11:59:24.068Z,24.90
2022-08-09T12:02:18.110Z,25.00
2022-08-09T12:04:44.065Z,25.10
2022-08-09T12:07:11.146Z,25.20
2022-08-09T12:09:50.267Z,25.30
2022-08-09T12:12:20.232Z,25.40
2022-08-09T12:15:07.697Z,25.50
2022-08-09T12:17:43.519Z,25.60
2022-08-09T12:20:16.505Z,25.70
2022-08-09T12:22:47.378Z,25.80
2022-08-09T12:25:18.182Z,25.80
2022-08-09T12:29:00.101Z,25.90
2022-08-09T12:30:57.610Z,25.90
2022-08-09T12:33:24.622Z,26.00
2022-08-09T12:36:05.875Z,26.10
2022-08-09T12:38:53.683Z,26.10
2022-08-09T12:41:24.255Z,26.20
2022-08-09T12:44:04.903Z,26.30
2022-08-09T12:46:34.389Z,26.40
2022-08-09T12:49:03.408Z,26.50
2022-08-09T12:51:52.655Z,26.60
2022-08-09T12:54:17.750Z,26.70
2022-08-09T12:56:51.437Z,26.80
2022-08-09T12:59:24.586Z,26.90
2022-08-09T13:02:09.610Z,27.00
2022-08-09T13:04:38.809Z,27.20
2022-08-09T13:07:11.415Z,27.30
2022-08-09T13:09:41.035Z,27.50
2022-08-09T13:12:10.161Z,27.60
2022-08-09T13:14:47.355Z,27.70
2022-08-09T13:17:43.862Z,27.80
2022-08-09T13:20:14.361Z,27.90
2022-08-09T13:23:00.946Z,28.10
2022-08-09T13:25:41.764Z,28.20
2022-08-09T13:28:14.094Z,28.30
2022-08-09T13:30:51.176Z,28.40
2022-08-09T13:33:35.924Z,28.50
2022-08-09T13:36:37.553Z,28.70
2022-08-09T13:41:20.813Z,28.90
2022-08-09T13:42:01.431Z,29.00
2022-08-09T13:44:29.018Z,29.20
2022-08-09T13:47:27.027Z,29.40
2022-08-09T13:49:55.991Z,29.50
2022-08-09T13:52:24.946Z,29.60
2022-08-09T13:54:59.974Z,29.80
2022-08-09T13:57:36.354Z,29.80
2022-08-09T14:00:12.172Z,29.80
2022-08-09T14:02:42.191Z,29.90
2022-08-09T14:05:10.198Z,29.80
2022-08-09T14:07:41.967Z,29.80
2022-08-09T14:10:17.537Z,29.80
2022-08-09T14:12:57.387Z,29.80
2022-08-09T14:16:10.526Z,29.70
2022-08-09T14:18:19.894Z,29.70
2022-08-09T14:20:54.495Z,29.70
2022-08-09T14:23:40.018Z,29.50
2022-08-09T14:26:07.771Z,29.40
2022-08-09T14:28:37.062Z,29.30
2022-08-09T14:31:03.814Z,29.30
2022-08-09T14:33:30.729Z,29.30
2022-08-09T14:36:19.527Z,29.30
2022-08-09T14:38:52.677Z,29.40
2022-08-09T14:41:23.885Z,29.50
2022-08-09T14:44:02.908Z,29.60
2022-08-09T14:46:58.879Z,29.70
2022-08-09T14:49:17.067Z,29.90
2022-08-09T14:51:43.741Z,30.10
2022-08-09T14:54:10.484Z,30.30
2022-08-09T14:56:57.476Z,30.40
2022-08-09T14:59:25.143Z,30.60
2022-08-09T15:01:53.886Z,30.70
2022-08-09T15:04:20.595Z,30.80
2022-08-09T15:06:51.397Z,30.90
2022-08-09T15:10:03.367Z,31.10
2022-08-09T15:12:08.145Z,31.30
2022-08-09T15:14:38.304Z,31.40
2022-08-09T15:17:09.194Z,31.50
2022-08-09T15:19:36.782Z,31.70
2022-08-09T15:22:03.723Z,31.90
2022-08-09T15:24:30.421Z,32.30
2022-08-09T15:26:57.760Z,32.60
2022-08-09T15:30:59.766Z,32.90
2022-08-09T15:32:29.722Z,33.30
2022-08-09T15:34:59.726Z,33.80
2022-08-09T15:37:57.477Z,34.30
2022-08-09T15:40:32.498Z,34.60
2022-08-09T15:43:00.428Z,35.00
2022-08-09T15:45:29.484Z,35.30
2022-08-09T15:48:05.137Z,35.90
2022-08-09T15:50:34.513Z,36.30
2022-08-09T15:53:17.702Z,36.90
2022-08-09T15:55:58.977Z,37.40
2022-08-09T15:58:32.989Z,37.90
2022-08-09T16:00:59.690Z,38.50
2022-08-09T16:03:29.390Z,39.10
2022-08-09T16:06:05.624Z,39.70
2022-08-09T16:08:32.260Z,40.20
2022-08-09T16:10:59.820Z,40.60
2022-08-09T16:14:05.135Z,41.10
2022-08-09T16:16:18.754Z,41.40
2022-08-09T16:18:46.232Z,41.70
2022-08-09T16:21:17.772Z,41.80
2022-08-09T16:23:55.658Z,41.90
2022-08-09T16:26:33.406Z,42.00
2022-08-09T16:29:10.767Z,42.30
2022-08-09T16:32:19.900Z,42.40
2022-08-09T16:34:29.686Z,42.40
2022-08-09T16:37:16.283Z,42.50
2022-08-09T16:39:54.507Z,42.40
2022-08-09T16:42:29.518Z,42.20
2022-08-09T16:44:56.107Z,41.70
2022-08-09T16:48:40.670Z,41.20
2022-08-09T16:50:31.927Z,40.70
2022-08-09T16:52:56.334Z,39.90
2022-08-09T16:55:23.602Z,38.90
2022-08-09T16:58:09.027Z,38.00
2022-08-09T17:00:38.799Z,37.30
2022-08-09T17:03:21.562Z,36.50
2022-08-09T17:06:07.476Z,35.70
2022-08-09T17:08:44.990Z,35.10
2022-08-09T17:11:24.622Z,34.50
2022-08-09T17:14:01.090Z,34.00
2022-08-09T17:16:28.063Z,33.60
2022-08-09T17:18:55.117Z,33.30
2022-08-09T17:21:21.918Z,33.00
2022-08-09T17:24:21.216Z,32.60
2022-08-09T17:26:37.951Z,32.30
2022-08-09T17:29:04.902Z,32.00
2022-08-09T17:31:39.070Z,31.80
2022-08-09T17:34:09.417Z,31.60
2022-08-09T17:36:54.033Z,31.50
2022-08-09T17:39:24.937Z,31.30
2022-08-09T17:41:51.955Z,31.10
2022-08-09T17:44:42.225Z,31.00
2022-08-09T17:47:05.945Z,30.90
2022-08-09T17:49:37.358Z,30.70
2022-08-09T17:52:22.496Z,30.60
2022-08-09T17:54:49.702Z,30.50
2022-08-09T17:57:20.563Z,30.30
2022-08-09T18:00:05.817Z,30.20
2022-08-09T18:02:38.940Z,30.10
2022-08-09T18:05:06.625Z,30.00
2022-08-09T18:07:39.750Z,29.90
2022-08-09T18:10:15.261Z,29.80
2022-08-09T18:13:40.621Z,29.70
2022-08-09T18:16:05.123Z,29.60
2022-08-09T18:18:25.196Z,29.40
2022-08-09T18:21:10.421Z,29.30
2022-08-09T18:24:10.847Z,29.20
2022-08-09T18:26:25.987Z,29.10
2022-08-09T18:30:39.647Z,28.90
2022-08-09T18:31:55.037Z,28.80
2022-08-09T18:34:24.228Z,28.80
2022-08-09T18:36:53.461Z,28.60
2022-08-09T18:39:22.347Z,28.60
2022-08-09T18:41:52.482Z,28.50
2022-08-09T18:44:25.656Z,28.40
2022-08-09T18:47:06.466Z,28.40
2022-08-09T18:49:43.478Z,28.30
2022-08-09T18:52:24.621Z,28.20
2022-08-09T18:54:53.354Z,28.20
2022-08-09T18:57:22.025Z,28.10
2022-08-09T18:59:57.845Z,28.00
2022-08-09T19:02:30.658Z,27.90
2022-08-09T19:05:14.518Z,27.90
2022-08-09T19:08:04.426Z,27.80
2022-08-09T19:10:37.592Z,27.80
2022-08-09T19:13:19.405Z,27.70
2022-08-09T19:15:49.409Z,27.70
2022-08-09T19:18:37.365Z,27.60
2022-08-09T19:21:05.510Z,27.50
2022-08-09T19:24:33.463Z,27.50
2022-08-09T19:26:31.164Z,27.50
2022-08-09T19:29:01.725Z,27.40
2022-08-09T19:31:44.911Z,27.30
2022-08-09T19:34:21.450Z,27.20
2022-08-09T19:36:53.373Z,27.20
2022-08-09T19:39:43.760Z,27.10
2022-08-09T19:42:07.150Z,27.10
2022-08-09T19:44:33.904Z,27.10
2022-08-09T19:47:01.550Z,27.00
2022-08-09T19:50:06.998Z,26.90
2022-08-09T19:52:15.512Z,26.90
2022-08-09T19:54:48.455Z,26.80
2022-08-09T19:57:17.321Z,26.80
2022-08-09T20:00:05.652Z,26.70
2022-08-09T20:04:26.290Z,26.60
2022-08-09T20:05:24.941Z,26.60
2022-08-09T20:07:59.377Z,26.50
2022-08-09T20:10:36.327Z,26.40
2022-08-09T20:13:05.119Z,26.40
2022-08-09T20:16:37.680Z,26.30
2022-08-09T20:18:19.680Z,26.30
2022-08-09T20:20:46.705Z,26.20
2022-08-09T20:23:13.374Z,26.20
2022-08-09T20:25:51.279Z,26.10
2022-08-09T20:28:24.524Z,26.10
2022-08-09T20:31:02.601Z,26.00
2022-08-09T20:33:40.906Z,26.00
2022-08-09T20:36:11.322Z,25.90
2022-08-09T20:39:04.298Z,25.80
2022-08-09T20:41:35.489Z,25.80
2022-08-09T20:44:05.070Z,25.70
2022-08-09T20:46:43.187Z,25.70
2022-08-09T20:49:12.387Z,25.60
2022-08-09T20:51:41.726Z,25.60
2022-08-09T20:54:10.573Z,25.50
2022-08-09T20:56:47.271Z,25.50
2022-08-09T20:59:17.531Z,25.40
2022-08-09T21:01:53.663Z,25.40
2022-08-09T21:05:52.733Z,25.40
2022-08-09T21:07:12.043Z,25.30
2022-08-09T21:09:56.836Z,25.20
2022-08-09T21:15:13.639Z,25.10
2022-08-09T21:18:22.399Z,25.10
2022-08-09T21:20:29.801Z,25.00
2022-08-09T21:22:57.594Z,25.00
2022-08-09T21:25:44.040Z,25.00
2022-08-09T21:28:34.894Z,25.00
2022-08-09T21:31:17.669Z,25.00
2022-08-09T21:33:51.289Z,25.00
2022-08-09T21:36:23.070Z,24.90
2022-08-09T21:38:57.751Z,24.80
2022-08-09T21:41:59.803Z,24.80
2022-08-09T21:44:12.779Z,24.70
2022-08-09T21:46:42.249Z,24.70
2022-08-09T21:49:09.810Z,24.60
2022-08-09T21:51:43.730Z,24.50
2022-08-09T21:54:12.150Z,24.50
2022-08-09T21:56:44.509Z,24.40
2022-08-09T21:59:23.152Z,24.30
2022-08-09T22:02:00.445Z,24.30
2022-08-09T22:04:55.757Z,24.20
2022-08-09T22:07:35.298Z,24.20
2022-08-09T22:10:03.068Z,24.10
2022-08-09T22:12:31.291Z,24.10
2022-08-09T22:14:58.732Z,24.10
2022-08-09T22:17:25.438Z,24.00
2022-08-09T22:19:59.806Z,23.90
2022-08-09T22:22:27.500Z,23.90
2022-08-09T22:26:07.518Z,23.90
2022-08-09T22:27:40.878Z,23.80
2022-08-09T22:30:09.085Z,23.70
2022-08-09T22:32:35.681Z,23.70
2022-08-09T22:35:06.712Z,23.70
2022-08-09T22:38:06.854Z,23.70
2022-08-09T22:40:34.836Z,23.60
2022-08-09T22:43:16.169Z,23.60
2022-08-09T22:48:13.618Z,23.50
2022-08-09T22:48:36.308Z,23.50
2022-08-09T22:51:10.302Z,23.40
2022-08-09T22:53:44.425Z,23.30
2022-08-09T22:56:31.342Z,23.30
2022-08-09T22:59:05.715Z,23.30
2022-08-09T23:01:48.821Z,23.20
2022-08-09T23:04:15.618Z,23.20
2022-08-09T23:07:02.737Z,23.10
2022-08-09T23:09:29.685Z,23.00
2022-08-09T23:11:57.378Z,23.00
2022-08-09T23:14:30.333Z,22.90
2022-08-09T23:17:04.400Z,22.90
2022-08-09T23:19:31.062Z,22.90
2022-08-09T23:22:17.713Z,22.80
2022-08-09T23:24:44.476Z,22.80
2022-08-09T23:27:15.538Z,22.70
2022-08-09T23:29:42.337Z,22.70
2022-08-09T23:32:09.012Z,22.70
2022-08-09T23:34:36.651Z,22.60
2022-08-09T23:37:04.416Z,22.60
2022-08-09T23:39:31.087Z,22.60
2022-08-09T23:41:57.791Z,22.50
2022-08-09T23:44:24.450Z,22.50
2022-08-09T23:46:52.874Z,22.40
2022-08-09T23:49:25.043Z,22.40
2022-08-09T23:51:52.344Z,22.40
2022-08-09T23:54:19.816Z,22.40
2022-08-09T23:56:54.203Z,22.30
2022-08-09T23:59:22.717Z,22.30
